EGMC/SEN METAR and TAF weather

Enter ICAO airport designator
Station Type Date Time Source
EGMC METAR 2020/03/29 21:50 UTC NOAA

EGMC 292150Z 36009KT CAVOK 02/M04 Q1039


Station Type Date Time Source
EGMC Decoded METAR 2020/03/29 21:50 UTC NOAA

Southend-On-Sea , United Kingdom (EGMC) 51-34N 000-42E
Mar 29, 2020 - 05:50 PM EDT / 2020.03.29 2150 UTC
Wind: from the N (360 degrees) at 10 MPH (9 KT):0
Visibility: greater than 7 mile(s):0
Temperature: 35 F (2 C)
Windchill: 26 F (-3 C):1
Dew Point: 24 F (-4 C)
Relative Humidity: 64%
Pressure (altimeter): 30.68 in. Hg (1039 hPa)
ob: EGMC 292150Z 36009KT CAVOK 02/M04 Q1039
cycle: 22

Station Type Date Time Source
EGMC TAF 2016/04/18 18:00 UTC NOAA

TAF EGMC 181658Z 1818/1903 28008KT 9999 BKN045

Example: see airport list